Time;durP1;ratioP1;P1;durP2;ratioP2;P2;SDS_P1;SDS_P2;PMS_P1;PMS_P2;Temp;Humidity;BMP_temperature;BMP_pressure;BME280_temperature;BME280_humidity;BME280_pressure;Samples;Min_cycle;Max_cycle;Signal;HPM_P1;HPM_P2
2022/06/20 00:00:32;;;;;;;5.38;2.10;;;;;;;;;;4989744;28;20229;-72
2022/06/20 00:03:00;;;;;;;4.87;1.83;;;;;;;;;;4988307;28;20726;-73
2022/06/20 00:05:31;;;;;;;4.35;2.03;;;;;;;;;;4996076;28;20217;-73
2022/06/20 00:07:56;;;;;;;5.03;2.20;;;;;;;;;;4985039;28;20290;-73
2022/06/20 00:10:29;;;;;;;4.67;2.30;;;;;;;;;;4972941;28;20271;-73
2022/06/20 00:12:57;;;;;;;5.53;2.57;;;;;;;;;;4987999;28;20638;-73
2022/06/20 00:15:25;;;;;;;8.10;2.65;;;;;;;;;;4983372;28;20695;-74
2022/06/20 00:17:51;;;;;;;7.57;2.60;;;;;;;;;;4996207;28;20324;-73
2022/06/20 00:20:25;;;;;;;7.03;2.40;;;;;;;;;;4967777;28;20312;-75
2022/06/20 00:22:57;;;;;;;5.07;2.03;;;;;;;;;;4976257;28;20702;-74
2022/06/20 00:25:25;;;;;;;5.25;2.28;;;;;;;;;;4993512;28;20232;-74
2022/06/20 00:27:54;;;;;;;5.93;2.30;;;;;;;;;;4988404;28;20752;-74
2022/06/20 00:30:24;;;;;;;6.65;2.20;;;;;;;;;;4989100;28;20224;-74
2022/06/20 00:32:52;;;;;;;6.57;2.40;;;;;;;;;;4959091;28;20244;-73
2022/06/20 00:35:22;;;;;;;5.07;2.25;;;;;;;;;;4997722;28;20256;-73
2022/06/20 00:37:48;;;;;;;6.03;2.17;;;;;;;;;;4988760;28;20232;-73
2022/06/20 00:40:32;;;;;;;8.17;2.60;;;;;;;;;;4985500;28;20278;-73
2022/06/20 00:43:00;;;;;;;6.50;2.70;;;;;;;;;;4984625;28;20224;-73
2022/06/20 00:45:26;;;;;;;6.97;3.00;;;;;;;;;;4989301;28;20217;-73
2022/06/20 00:47:55;;;;;;;6.73;3.00;;;;;;;;;;4973965;28;20307;-74
2022/06/20 00:50:23;;;;;;;7.33;3.10;;;;;;;;;;4976329;28;20225;-73
2022/06/20 00:52:52;;;;;;;7.40;3.17;;;;;;;;;;4987217;28;20711;-72
2022/06/20 00:55:25;;;;;;;5.80;2.90;;;;;;;;;;4986843;28;20683;-72
2022/06/20 00:57:57;;;;;;;6.50;3.00;;;;;;;;;;4971463;28;20225;-72
2022/06/20 01:00:33;;;;;;;7.07;3.00;;;;;;;;;;4967881;28;20304;-73
2022/06/20 01:03:06;;;;;;;7.37;3.13;;;;;;;;;;4986469;28;20225;-73
2022/06/20 01:05:39;;;;;;;7.10;3.30;;;;;;;;;;4982379;28;20959;-73
2022/06/20 01:08:25;;;;;;;5.70;3.30;;;;;;;;;;5000964;28;20227;-74
2022/06/20 01:11:01;;;;;;;6.63;3.03;;;;;;;;;;4996628;28;20251;-73
2022/06/20 01:13:27;;;;;;;6.17;3.17;;;;;;;;;;5005542;28;20236;-74
2022/06/20 01:15:55;;;;;;;7.07;3.13;;;;;;;;;;4987428;28;20279;-74
2022/06/20 01:18:24;;;;;;;9.73;3.20;;;;;;;;;;4963120;28;20229;-73
2022/06/20 01:20:50;;;;;;;8.27;3.23;;;;;;;;;;4985992;28;20229;-73
2022/06/20 01:23:34;;;;;;;6.10;3.17;;;;;;;;;;4988459;28;20283;-73
2022/06/20 01:26:00;;;;;;;7.00;3.40;;;;;;;;;;4993731;28;20232;-73
2022/06/20 01:28:27;;;;;;;9.70;3.90;;;;;;;;;;4996984;28;20648;-73
2022/06/20 01:30:53;;;;;;;6.67;3.50;;;;;;;;;;4992185;28;20299;-73
2022/06/20 01:33:20;;;;;;;6.03;3.43;;;;;;;;;;4972305;28;20221;-73
2022/06/20 01:38:33;;;;;;;8.80;3.63;;;;;;;;;;4989750;28;20247;-74
2022/06/20 01:43:43;;;;;;;8.73;3.67;;;;;;;;;;4994382;28;20260;-74
2022/06/20 01:46:11;;;;;;;5.43;3.70;;;;;;;;;;4988535;28;20225;-73
2022/06/20 01:48:40;;;;;;;6.80;4.30;;;;;;;;;;4983967;28;20230;-74
2022/06/20 01:51:06;;;;;;;7.43;4.60;;;;;;;;;;4997592;28;20225;-74
2022/06/20 01:53:32;;;;;;;9.83;5.23;;;;;;;;;;4992429;28;20229;-74
2022/06/20 01:56:02;;;;;;;10.90;5.47;;;;;;;;;;5001675;28;20218;-74
2022/06/20 01:58:38;;;;;;;7.93;4.87;;;;;;;;;;4991491;28;20275;-73
2022/06/20 02:01:03;;;;;;;7.43;4.53;;;;;;;;;;4986412;28;20705;-73
2022/06/20 02:03:29;;;;;;;7.37;4.67;;;;;;;;;;4990602;28;20230;-74
2022/06/20 02:05:55;;;;;;;4.67;4.17;;;;;;;;;;4992266;28;20679;-73
2022/06/20 02:08:21;;;;;;;9.37;4.40;;;;;;;;;;5000314;28;20212;-73
2022/06/20 02:10:51;;;;;;;9.53;4.70;;;;;;;;;;4968103;28;20229;-74
2022/06/20 02:13:20;;;;;;;6.60;4.23;;;;;;;;;;4984601;28;20332;-73
2022/06/20 02:15:49;;;;;;;8.30;4.13;;;;;;;;;;4980778;28;20682;-74
2022/06/20 02:18:17;;;;;;;6.20;4.20;;;;;;;;;;4982860;28;20324;-74
2022/06/20 02:20:49;;;;;;;7.17;4.27;;;;;;;;;;4986197;28;20275;-73
2022/06/20 02:23:25;;;;;;;6.73;4.43;;;;;;;;;;4986935;28;20229;-74
2022/06/20 02:25:52;;;;;;;5.97;5.10;;;;;;;;;;5003480;28;20264;-74
2022/06/20 02:28:20;;;;;;;7.73;5.17;;;;;;;;;;4976973;28;20726;-73
2022/06/20 02:30:48;;;;;;;7.67;4.97;;;;;;;;;;4959833;28;20220;-73
2022/06/20 02:33:22;;;;;;;9.33;5.03;;;;;;;;;;4978870;28;20356;-72
2022/06/20 02:35:48;;;;;;;7.57;5.30;;;;;;;;;;4988294;28;20320;-74
2022/06/20 02:38:16;;;;;;;8.90;6.10;;;;;;;;;;4989548;28;20312;-74
2022/06/20 02:40:44;;;;;;;7.30;6.13;;;;;;;;;;4975308;28;20229;-73
2022/06/20 02:43:36;;;;;;;9.47;5.90;;;;;;;;;;4991145;28;20217;-73
2022/06/20 02:46:02;;;;;;;9.43;6.17;;;;;;;;;;5002801;28;20228;-74
2022/06/20 02:48:29;;;;;;;7.57;5.60;;;;;;;;;;4965786;28;20729;-73
2022/06/20 02:50:57;;;;;;;8.70;6.17;;;;;;;;;;4991217;28;20726;-74
2022/06/20 02:53:37;;;;;;;7.13;5.87;;;;;;;;;;4987210;28;20233;-74
2022/06/20 02:56:03;;;;;;;7.43;5.53;;;;;;;;;;4970477;28;20229;-73
2022/06/20 02:58:29;;;;;;;9.67;5.80;;;;;;;;;;4963635;28;20225;-73
2022/06/20 03:01:11;;;;;;;8.50;5.03;;;;;;;;;;4973268;28;20229;-73
2022/06/20 03:03:39;;;;;;;7.43;4.93;;;;;;;;;;4974006;28;20230;-73
2022/06/20 03:06:06;;;;;;;7.50;5.00;;;;;;;;;;4979010;28;20673;-73
2022/06/20 03:08:34;;;;;;;7.90;5.17;;;;;;;;;;4988277;28;20244;-73
2022/06/20 03:11:05;;;;;;;7.60;4.83;;;;;;;;;;4990190;28;20245;-73
2022/06/20 03:13:31;;;;;;;8.37;4.50;;;;;;;;;;4973696;28;20241;-73
2022/06/20 03:16:03;;;;;;;10.33;4.20;;;;;;;;;;4989666;28;20760;-73
2022/06/20 03:18:35;;;;;;;6.10;4.60;;;;;;;;;;4981834;28;20602;-74
2022/06/20 03:21:00;;;;;;;4.90;4.40;;;;;;;;;;4975003;28;20221;-74
2022/06/20 03:23:31;;;;;;;7.50;4.50;;;;;;;;;;4979062;28;20229;-73
2022/06/20 03:25:58;;;;;;;6.93;4.57;;;;;;;;;;4975707;28;20969;-74
2022/06/20 03:28:30;;;;;;;7.33;4.40;;;;;;;;;;4990156;28;20768;-74
2022/06/20 03:30:58;;;;;;;8.27;4.53;;;;;;;;;;4986832;28;20225;-73
2022/06/20 03:33:29;;;;;;;10.33;4.57;;;;;;;;;;4965192;28;20229;-72
2022/06/20 03:35:57;;;;;;;6.60;4.30;;;;;;;;;;4986808;28;20229;-74
2022/06/20 03:38:25;;;;;;;6.27;4.40;;;;;;;;;;4989694;28;20244;-73
2022/06/20 03:40:53;;;;;;;7.60;4.00;;;;;;;;;;4989089;28;20235;-74
2022/06/20 03:43:24;;;;;;;7.80;4.20;;;;;;;;;;4965385;28;20598;-73
2022/06/20 03:46:01;;;;;;;7.80;4.20;;;;;;;;;;4989522;28;20286;-74
2022/06/20 03:48:40;;;;;;;8.90;4.47;;;;;;;;;;4981284;28;20612;-74
2022/06/20 03:51:21;;;;;;;8.13;3.93;;;;;;;;;;4990581;28;20240;-74
2022/06/20 03:53:51;;;;;;;8.70;4.63;;;;;;;;;;4987192;28;20237;-74
2022/06/20 03:56:19;;;;;;;9.87;4.20;;;;;;;;;;4979733;28;20280;-74
2022/06/20 03:59:31;;;;;;;8.23;4.13;;;;;;;;;;5000041;28;20361;-74
2022/06/20 04:02:02;;;;;;;11.97;4.40;;;;;;;;;;4903417;29;20631;-74
2022/06/20 04:04:48;;;;;;;8.30;4.20;;;;;;;;;;4900811;29;20236;-74
2022/06/20 04:07:20;;;;;;;6.83;3.87;;;;;;;;;;4953386;28;20316;-75
2022/06/20 04:12:40;;;;;;;10.13;4.23;;;;;;;;;;4999198;28;20237;-74
2022/06/20 04:15:33;;;;;;;10.67;4.57;;;;;;;;;;4982362;28;20951;-76
2022/06/20 04:21:08;;;;;;;6.27;3.70;;;;;;;;;;5000037;28;20632;-74
2022/06/20 04:24:18;;;;;;;6.87;3.87;;;;;;;;;;4982725;28;20221;-75
2022/06/20 04:26:51;;;;;;;5.40;3.70;;;;;;;;;;4972041;28;20236;-75
2022/06/20 04:29:23;;;;;;;6.83;3.87;;;;;;;;;;4976869;28;20303;-74
2022/06/20 04:32:02;;;;;;;7.70;3.57;;;;;;;;;;4999993;28;20645;-74
2022/06/20 04:34:39;;;;;;;5.43;3.20;;;;;;;;;;4985172;28;20290;-76
2022/06/20 04:37:11;;;;;;;6.77;3.33;;;;;;;;;;4988191;28;20235;-74
2022/06/20 04:39:47;;;;;;;9.93;3.40;;;;;;;;;;4985218;28;20245;-75
2022/06/20 04:42:15;;;;;;;6.90;3.07;;;;;;;;;;5001446;28;20672;-75
2022/06/20 04:44:59;;;;;;;8.30;3.60;;;;;;;;;;4996072;28;20229;-75
2022/06/20 04:47:54;;;;;;;5.37;3.37;;;;;;;;;;4982812;28;20221;-76
2022/06/20 04:50:25;;;;;;;8.10;3.50;;;;;;;;;;4985743;28;20217;-75
2022/06/20 04:52:51;;;;;;;11.77;3.70;;;;;;;;;;4993213;28;20237;-76
2022/06/20 04:55:23;;;;;;;7.53;3.50;;;;;;;;;;4978057;28;20225;-73
2022/06/20 04:57:51;;;;;;;9.53;3.30;;;;;;;;;;4984512;28;20316;-73
2022/06/20 05:00:25;;;;;;;9.10;3.87;;;;;;;;;;4986266;28;20220;-72
2022/06/20 05:02:53;;;;;;;7.20;3.90;;;;;;;;;;4969908;28;20217;-72
2022/06/20 05:05:21;;;;;;;6.73;3.30;;;;;;;;;;4971378;28;20252;-73
2022/06/20 05:07:47;;;;;;;9.03;3.70;;;;;;;;;;4973702;28;20315;-74
2022/06/20 05:10:36;;;;;;;5.83;3.30;;;;;;;;;;4959994;28;20698;-74
2022/06/20 05:13:05;;;;;;;6.70;4.23;;;;;;;;;;4988444;28;20279;-75
2022/06/20 05:15:43;;;;;;;9.40;4.57;;;;;;;;;;4984546;28;20225;-73
2022/06/20 05:18:21;;;;;;;7.73;4.73;;;;;;;;;;4976768;28;20290;-74
2022/06/20 05:20:46;;;;;;;11.20;4.17;;;;;;;;;;4993425;28;20228;-74
2022/06/20 05:23:32;;;;;;;14.27;6.60;;;;;;;;;;4988057;28;20225;-73
2022/06/20 05:26:00;;;;;;;8.57;4.90;;;;;;;;;;4985532;28;20233;-74
2022/06/20 05:28:28;;;;;;;7.27;4.07;;;;;;;;;;4993040;28;20220;-74
2022/06/20 05:30:56;;;;;;;8.70;4.30;;;;;;;;;;4978449;28;20228;-73
2022/06/20 05:33:33;;;;;;;6.33;3.40;;;;;;;;;;4988847;28;20320;-75
2022/06/20 05:36:10;;;;;;;9.33;3.90;;;;;;;;;;5010776;28;20323;-74
2022/06/20 05:38:44;;;;;;;6.73;3.60;;;;;;;;;;5003157;28;20232;-74
2022/06/20 05:41:15;;;;;;;9.53;3.30;;;;;;;;;;4996402;28;20229;-73
2022/06/20 05:43:43;;;;;;;10.13;3.53;;;;;;;;;;4976058;28;20225;-74
2022/06/20 05:46:52;;;;;;;9.17;3.87;;;;;;;;;;4978164;28;20240;-72
2022/06/20 05:49:25;;;;;;;10.90;3.73;;;;;;;;;;4985314;28;20695;-73
2022/06/20 05:51:53;;;;;;;11.32;3.85;;;;;;;;;;4974934;28;20911;-74
2022/06/20 05:54:25;;;;;;;8.80;3.67;;;;;;;;;;4991547;28;20663;-74
2022/06/20 05:57:09;;;;;;;10.03;3.90;;;;;;;;;;4982159;28;20229;-73
2022/06/20 05:59:44;;;;;;;10.77;3.88;;;;;;;;;;4951096;28;20291;-73
2022/06/20 06:02:24;;;;;;;10.00;3.90;;;;;;;;;;5001171;28;20243;-73
2022/06/20 06:05:19;;;;;;;9.63;3.67;;;;;;;;;;5002549;28;20813;-74
2022/06/20 06:08:02;;;;;;;9.30;3.73;;;;;;;;;;4998964;28;20302;-78
2022/06/20 06:10:27;;;;;;;8.00;3.10;;;;;;;;;;4983996;28;20259;-75
2022/06/20 06:13:00;;;;;;;6.50;3.35;;;;;;;;;;4998382;28;20676;-75
2022/06/20 06:16:46;;;;;;;10.50;3.70;;;;;;;;;;5003248;28;20217;-71
2022/06/20 06:18:31;;;;;;;9.48;3.35;;;;;;;;;;4991351;28;20327;-72
2022/06/20 06:20:56;;;;;;;7.95;3.72;;;;;;;;;;5003353;28;20245;-72
2022/06/20 06:23:31;;;;;;;7.80;3.25;;;;;;;;;;4987729;28;20582;-73
2022/06/20 06:26:00;;;;;;;7.65;3.50;;;;;;;;;;4970869;28;20224;-71
2022/06/20 06:28:28;;;;;;;8.73;3.35;;;;;;;;;;4995937;28;20252;-73
2022/06/20 06:31:05;;;;;;;7.93;3.35;;;;;;;;;;4999155;28;20229;-73
2022/06/20 06:33:32;;;;;;;7.75;3.53;;;;;;;;;;4992572;28;20753;-73
2022/06/20 06:36:03;;;;;;;9.52;3.53;;;;;;;;;;4988987;28;21150;-73
2022/06/20 06:38:36;;;;;;;10.10;3.47;;;;;;;;;;4983749;28;20324;-73
2022/06/20 06:41:03;;;;;;;7.43;2.97;;;;;;;;;;5005496;28;20655;-73
2022/06/20 06:43:38;;;;;;;8.07;3.17;;;;;;;;;;4976974;28;20688;-74
2022/06/20 06:46:09;;;;;;;6.93;2.65;;;;;;;;;;5000523;28;20762;-74
2022/06/20 06:48:41;;;;;;;10.05;3.35;;;;;;;;;;4989763;28;20233;-74
2022/06/20 06:51:13;;;;;;;4.88;2.53;;;;;;;;;;5005250;28;20229;-73
2022/06/20 06:53:59;;;;;;;11.07;2.70;;;;;;;;;;4978077;28;20234;-74
2022/06/20 06:56:32;;;;;;;6.35;2.20;;;;;;;;;;4993690;28;20300;-74
2022/06/20 06:59:13;;;;;;;5.90;2.03;;;;;;;;;;4995377;28;20261;-74
2022/06/20 07:01:45;;;;;;;6.97;2.30;;;;;;;;;;4998831;28;20229;-74
2022/06/20 07:04:26;;;;;;;8.50;2.63;;;;;;;;;;4988123;28;20609;-74
2022/06/20 07:06:58;;;;;;;7.40;2.65;;;;;;;;;;4989262;28;20656;-74
2022/06/20 07:09:32;;;;;;;7.63;2.67;;;;;;;;;;5001308;28;20229;-76
2022/06/20 07:12:03;;;;;;;9.38;2.78;;;;;;;;;;4997651;28;20325;-75
2022/06/20 07:14:29;;;;;;;8.00;2.80;;;;;;;;;;5002951;28;20276;-75
2022/06/20 07:17:20;;;;;;;10.73;2.88;;;;;;;;;;5000073;28;20228;-75
2022/06/20 07:19:50;;;;;;;6.93;2.53;;;;;;;;;;4976719;28;20229;-72
2022/06/20 07:25:22;;;;;;;5.97;2.30;;;;;;;;;;4968956;28;20216;-74
2022/06/20 07:27:58;;;;;;;7.93;2.60;;;;;;;;;;4987178;28;20296;-74
2022/06/20 07:30:28;;;;;;;6.07;2.75;;;;;;;;;;4974908;28;20259;-75
2022/06/20 07:32:56;;;;;;;7.50;2.42;;;;;;;;;;4972004;28;20236;-74
2022/06/20 07:35:26;;;;;;;4.65;2.05;;;;;;;;;;4975432;28;20324;-73
2022/06/20 07:38:24;;;;;;;6.50;2.10;;;;;;;;;;4979215;28;20317;-74
2022/06/20 07:40:59;;;;;;;4.18;2.47;;;;;;;;;;4973346;28;20237;-73
2022/06/20 07:43:34;;;;;;;7.22;1.45;;;;;;;;;;4979093;28;20220;-73
2022/06/20 07:46:08;;;;;;;6.47;2.33;;;;;;;;;;4989261;28;20228;-75
2022/06/20 07:48:41;;;;;;;6.50;2.10;;;;;;;;;;4989713;28;20233;-74
2022/06/20 07:51:13;;;;;;;4.10;2.22;;;;;;;;;;4971106;28;20240;-74
2022/06/20 07:53:54;;;;;;;6.63;1.92;;;;;;;;;;4946046;28;20259;-73
2022/06/20 07:56:24;;;;;;;5.60;2.30;;;;;;;;;;4974635;28;20299;-74
2022/06/20 07:59:00;;;;;;;6.68;2.10;;;;;;;;;;4977591;28;20249;-73
2022/06/20 08:01:32;;;;;;;4.18;1.77;;;;;;;;;;4997134;28;20228;-76
2022/06/20 08:04:02;;;;;;;5.82;1.80;;;;;;;;;;4975789;28;20229;-73
2022/06/20 08:06:39;;;;;;;8.55;2.00;;;;;;;;;;4971510;28;20232;-73
2022/06/20 08:09:07;;;;;;;6.15;1.80;;;;;;;;;;4991684;28;20229;-73
2022/06/20 08:11:42;;;;;;;4.53;1.73;;;;;;;;;;4977241;28;20237;-74
2022/06/20 08:14:14;;;;;;;5.43;1.85;;;;;;;;;;4981901;28;20232;-73
2022/06/20 08:16:39;;;;;;;4.93;1.90;;;;;;;;;;4968560;28;20323;-73
2022/06/20 08:19:08;;;;;;;3.72;1.60;;;;;;;;;;4968684;28;20255;-73
2022/06/20 08:21:37;;;;;;;6.25;2.10;;;;;;;;;;4989586;28;20244;-74
2022/06/20 08:24:09;;;;;;;4.00;1.73;;;;;;;;;;4989702;28;20235;-70
2022/06/20 08:26:44;;;;;;;5.45;1.95;;;;;;;;;;4989834;28;20244;-75
2022/06/20 08:29:17;;;;;;;4.90;1.70;;;;;;;;;;4981192;28;20436;-75
2022/06/20 08:31:51;;;;;;;4.47;2.00;;;;;;;;;;4997090;28;20660;-75
2022/06/20 08:34:27;;;;;;;5.75;1.88;;;;;;;;;;4983455;28;20252;-75
2022/06/20 08:37:05;;;;;;;3.03;1.60;;;;;;;;;;4999783;28;20225;-76
2022/06/20 08:39:45;;;;;;;5.32;1.88;;;;;;;;;;4980953;28;20236;-75
2022/06/20 08:42:48;;;;;;;8.93;1.83;;;;;;;;;;4975654;28;20236;-77
2022/06/20 08:45:34;;;;;;;4.22;1.70;;;;;;;;;;4996210;28;20244;-76
2022/06/20 08:48:10;;;;;;;5.45;1.60;;;;;;;;;;5000899;28;20240;-75
2022/06/20 08:50:57;;;;;;;4.18;1.60;;;;;;;;;;4983314;28;20235;-75
2022/06/20 08:53:37;;;;;;;3.72;1.70;;;;;;;;;;5001218;28;20240;-74
2022/06/20 08:56:11;;;;;;;8.60;1.88;;;;;;;;;;4992565;28;20229;-75
2022/06/20 08:58:53;;;;;;;7.22;1.88;;;;;;;;;;4992341;28;20690;-74
2022/06/20 09:01:27;;;;;;;3.83;1.52;;;;;;;;;;4967692;28;20220;-74
2022/06/20 09:04:30;;;;;;;1.98;1.17;;;;;;;;;;5000549;28;20224;-75
2022/06/20 09:07:20;;;;;;;6.63;1.98;;;;;;;;;;4979569;28;20232;-75
2022/06/20 09:09:56;;;;;;;3.85;1.60;;;;;;;;;;5001665;28;20260;-75
2022/06/20 09:12:57;;;;;;;4.13;1.25;;;;;;;;;;4985317;28;20226;-76
2022/06/20 09:15:46;;;;;;;5.72;1.65;;;;;;;;;;4931708;28;20788;-76
2022/06/20 09:18:26;;;;;;;2.97;1.38;;;;;;;;;;4995561;28;20224;-76
2022/06/20 09:20:55;;;;;;;3.50;1.30;;;;;;;;;;5000910;28;20239;-76
2022/06/20 09:23:38;;;;;;;2.47;1.30;;;;;;;;;;4964265;28;20585;-76
2022/06/20 09:26:18;;;;;;;2.40;1.10;;;;;;;;;;5001565;28;20248;-76
2022/06/20 09:28:58;;;;;;;6.72;1.52;;;;;;;;;;4997468;28;20221;-74
2022/06/20 09:31:48;;;;;;;5.45;1.48;;;;;;;;;;4999847;28;20220;-76
2022/06/20 09:34:39;;;;;;;3.33;1.27;;;;;;;;;;4996362;28;20295;-77
2022/06/20 09:37:16;;;;;;;2.55;1.00;;;;;;;;;;4980235;28;20261;-75
2022/06/20 09:39:46;;;;;;;2.25;1.15;;;;;;;;;;5002893;28;20241;-75
2022/06/20 09:42:21;;;;;;;4.57;1.20;;;;;;;;;;4997836;28;20340;-75
2022/06/20 09:45:06;;;;;;;3.95;1.60;;;;;;;;;;4985898;28;20601;-74
2022/06/20 09:47:59;;;;;;;2.95;1.08;;;;;;;;;;4996100;28;20240;-75
2022/06/20 09:50:49;;;;;;;2.28;1.02;;;;;;;;;;5005201;28;20229;-78
2022/06/20 09:53:57;;;;;;;2.63;1.17;;;;;;;;;;5005842;28;20784;-78
2022/06/20 09:56:33;;;;;;;2.47;0.90;;;;;;;;;;4998979;28;20240;-79
2022/06/20 09:59:28;;;;;;;4.50;1.20;;;;;;;;;;4979162;28;20217;-78
2022/06/20 10:02:11;;;;;;;1.83;0.80;;;;;;;;;;4977749;28;20235;-77
2022/06/20 10:04:48;;;;;;;1.50;0.85;;;;;;;;;;5005869;28;20533;-76
2022/06/20 10:07:27;;;;;;;2.35;1.10;;;;;;;;;;4983753;28;20290;-78
2022/06/20 10:10:05;;;;;;;3.33;1.17;;;;;;;;;;4992678;28;20224;-75
2022/06/20 10:12:44;;;;;;;6.00;1.20;;;;;;;;;;4998374;28;20225;-74
2022/06/20 10:15:33;;;;;;;3.15;1.20;;;;;;;;;;4974387;28;20223;-76
2022/06/20 10:18:23;;;;;;;2.83;1.20;;;;;;;;;;4987525;28;20778;-75
2022/06/20 10:20:54;;;;;;;2.70;1.13;;;;;;;;;;5004431;28;20315;-74
2022/06/20 10:23:44;;;;;;;3.15;1.50;;;;;;;;;;4990997;28;20212;-74
2022/06/20 10:26:25;;;;;;;5.25;1.63;;;;;;;;;;4955104;28;20223;-74
2022/06/20 10:29:23;;;;;;;3.13;1.30;;;;;;;;;;4984793;28;20264;-74
2022/06/20 10:31:55;;;;;;;1.48;1.30;;;;;;;;;;4981507;28;20232;-74
2022/06/20 10:34:43;;;;;;;3.30;1.13;;;;;;;;;;4997879;28;20236;-74
2022/06/20 10:37:30;;;;;;;3.03;1.25;;;;;;;;;;4998721;28;20232;-74
2022/06/20 10:39:55;;;;;;;3.38;1.55;;;;;;;;;;4992920;28;20267;-73
2022/06/20 10:42:42;;;;;;;5.60;1.25;;;;;;;;;;4996278;28;20252;-75
2022/06/20 10:45:26;;;;;;;2.20;1.20;;;;;;;;;;4987536;28;20281;-74
2022/06/20 10:48:13;;;;;;;2.97;1.50;;;;;;;;;;5001121;28;20320;-83
2022/06/20 10:50:49;;;;;;;2.35;1.45;;;;;;;;;;5000864;28;20224;-76
2022/06/20 10:53:33;;;;;;;3.65;1.80;;;;;;;;;;4980887;28;20232;-73
2022/06/20 10:56:10;;;;;;;4.53;1.38;;;;;;;;;;4997716;28;20315;-74
2022/06/20 10:59:08;;;;;;;2.72;1.30;;;;;;;;;;4981489;28;20241;-73
2022/06/20 11:01:52;;;;;;;6.95;1.50;;;;;;;;;;4972284;28;20245;-74
2022/06/20 11:04:52;;;;;;;2.40;1.20;;;;;;;;;;5007186;28;20231;-75
2022/06/20 11:07:26;;;;;;;3.85;1.60;;;;;;;;;;4996105;28;20217;-74
2022/06/20 11:10:03;;;;;;;4.13;1.45;;;;;;;;;;5004563;28;20231;-74
2022/06/20 11:12:45;;;;;;;3.65;1.33;;;;;;;;;;4981870;28;20319;-74
2022/06/20 11:15:21;;;;;;;3.80;1.42;;;;;;;;;;5007106;28;20259;-75
2022/06/20 11:18:24;;;;;;;3.33;1.70;;;;;;;;;;4990405;28;20303;-74
2022/06/20 11:21:02;;;;;;;5.28;1.80;;;;;;;;;;4978991;28;20276;-75
2022/06/20 11:23:33;;;;;;;1.83;1.60;;;;;;;;;;4986654;28;20241;-74
2022/06/20 11:26:35;;;;;;;3.00;1.50;;;;;;;;;;4988448;28;20228;-74
2022/06/20 11:29:28;;;;;;;4.85;1.52;;;;;;;;;;4998327;28;20252;-73
2022/06/20 11:32:06;;;;;;;5.43;1.85;;;;;;;;;;4978118;28;20232;-74
2022/06/20 11:35:16;;;;;;;3.40;1.30;;;;;;;;;;4975536;28;20733;-73
2022/06/20 11:38:13;;;;;;;5.50;1.67;;;;;;;;;;4988355;28;20229;-74
2022/06/20 11:40:40;;;;;;;3.08;1.50;;;;;;;;;;5000917;28;20259;-74
2022/06/20 11:43:28;;;;;;;5.35;1.60;;;;;;;;;;4966874;28;20217;-72
2022/06/20 11:46:12;;;;;;;4.57;1.48;;;;;;;;;;5004545;28;20244;-72
2022/06/20 11:49:10;;;;;;;4.93;1.40;;;;;;;;;;4998904;28;20241;-72
2022/06/20 11:52:01;;;;;;;3.92;1.58;;;;;;;;;;4982862;28;20236;-73
2022/06/20 11:55:05;;;;;;;4.10;1.38;;;;;;;;;;4975573;28;20802;-75
2022/06/20 11:57:45;;;;;;;3.13;1.55;;;;;;;;;;4975646;28;20351;-74
2022/06/20 12:00:15;;;;;;;3.50;1.70;;;;;;;;;;5000893;28;20221;-72
2022/06/20 12:02:49;;;;;;;3.50;1.30;;;;;;;;;;4984287;28;20218;-73
2022/06/20 12:05:17;;;;;;;3.00;1.20;;;;;;;;;;4966714;28;20232;-74
2022/06/20 12:08:11;;;;;;;3.83;1.40;;;;;;;;;;5006801;28;20240;-75
2022/06/20 12:10:47;;;;;;;2.75;1.48;;;;;;;;;;4989886;28;20229;-73
2022/06/20 12:13:18;;;;;;;4.88;1.65;;;;;;;;;;4987544;28;20220;-72
2022/06/20 12:16:22;;;;;;;5.10;1.50;;;;;;;;;;5002097;28;20316;-75
2022/06/20 12:24:49;;;;;;;3.78;1.58;;;;;;;;;;4997528;28;20279;-72
2022/06/20 12:27:17;;;;;;;3.88;1.63;;;;;;;;;;4985925;28;20734;-74
2022/06/20 12:29:46;;;;;;;4.13;1.60;;;;;;;;;;4987193;28;20690;-74
2022/06/20 12:32:16;;;;;;;3.78;1.63;;;;;;;;;;4995124;28;20216;-74
2022/06/20 12:34:51;;;;;;;4.82;1.73;;;;;;;;;;4987393;28;20237;-73
2022/06/20 12:37:35;;;;;;;2.65;1.50;;;;;;;;;;4998979;28;20229;-74
2022/06/20 12:40:04;;;;;;;4.00;1.55;;;;;;;;;;4977750;28;20240;-74
2022/06/20 12:43:24;;;;;;;4.55;1.60;;;;;;;;;;4994129;28;20316;-74
2022/06/20 12:45:59;;;;;;;2.90;1.48;;;;;;;;;;4961244;28;20313;-75
2022/06/20 12:49:02;;;;;;;3.67;1.40;;;;;;;;;;4977622;28;20721;-77
2022/06/20 12:51:33;;;;;;;3.22;1.50;;;;;;;;;;4973026;28;20302;-74
2022/06/20 12:55:01;;;;;;;2.00;1.40;;;;;;;;;;5001222;28;20272;-75
2022/06/20 12:57:46;;;;;;;3.10;1.48;;;;;;;;;;4911059;29;20295;-75
2022/06/20 13:00:40;;;;;;;5.65;1.67;;;;;;;;;;4979427;28;20221;-75
2022/06/20 13:03:38;;;;;;;2.55;1.52;;;;;;;;;;5000285;28;20303;-75
2022/06/20 13:06:37;;;;;;;2.95;1.20;;;;;;;;;;4998821;28;20279;-75
2022/06/20 13:09:08;;;;;;;2.92;1.20;;;;;;;;;;4952933;28;20227;-75
2022/06/20 13:12:13;;;;;;;3.38;1.40;;;;;;;;;;4990681;28;20237;-74
2022/06/20 13:15:15;;;;;;;5.60;1.40;;;;;;;;;;4996725;28;20706;-76
2022/06/20 13:17:50;;;;;;;3.38;1.60;;;;;;;;;;4997662;28;20232;-76
2022/06/20 13:20:28;;;;;;;3.85;1.55;;;;;;;;;;4972174;28;20255;-74
2022/06/20 13:22:53;;;;;;;3.83;1.50;;;;;;;;;;4949423;28;20213;-75
2022/06/20 13:25:35;;;;;;;3.70;1.58;;;;;;;;;;4996486;28;20231;-75
2022/06/20 13:28:10;;;;;;;2.58;1.40;;;;;;;;;;4986437;28;20312;-77
2022/06/20 13:30:56;;;;;;;3.55;1.58;;;;;;;;;;5002003;28;20294;-76
2022/06/20 13:33:34;;;;;;;3.90;1.40;;;;;;;;;;4977241;28;20249;-75
2022/06/20 13:36:12;;;;;;;3.38;1.20;;;;;;;;;;5002996;28;20224;-77
2022/06/20 13:38:59;;;;;;;2.20;1.10;;;;;;;;;;4959994;28;20220;-75
2022/06/20 13:41:53;;;;;;;3.90;1.23;;;;;;;;;;5001893;28;20230;-75
2022/06/20 13:44:27;;;;;;;2.63;1.30;;;;;;;;;;4987312;28;20305;-74
2022/06/20 13:47:01;;;;;;;2.28;1.10;;;;;;;;;;4987873;28;20227;-76
2022/06/20 13:49:50;;;;;;;2.50;1.10;;;;;;;;;;4985519;28;20237;-76
2022/06/20 13:52:30;;;;;;;2.25;1.00;;;;;;;;;;4998211;28;20224;-75
2022/06/20 13:55:16;;;;;;;4.57;1.13;;;;;;;;;;4980164;28;20236;-73
2022/06/20 13:57:47;;;;;;;2.53;1.27;;;;;;;;;;5000265;28;20228;-76
2022/06/20 14:00:18;;;;;;;2.42;1.40;;;;;;;;;;4961013;28;20225;-75
2022/06/20 14:02:44;;;;;;;1.98;1.10;;;;;;;;;;5001274;28;20252;-75
2022/06/20 14:05:20;;;;;;;3.33;1.20;;;;;;;;;;5000908;28;20237;-75
2022/06/20 14:07:49;;;;;;;3.90;1.20;;;;;;;;;;4981980;28;20220;-75
2022/06/20 14:10:28;;;;;;;1.95;1.02;;;;;;;;;;4992047;28;20225;-75
2022/06/20 14:13:06;;;;;;;2.60;1.17;;;;;;;;;;4969217;28;20224;-73
2022/06/20 14:15:41;;;;;;;2.50;1.20;;;;;;;;;;4966829;28;20225;-71
2022/06/20 14:18:12;;;;;;;3.25;0.98;;;;;;;;;;4992426;28;20237;-74
2022/06/20 14:20:55;;;;;;;1.95;1.20;;;;;;;;;;5005238;28;20286;-74
2022/06/20 14:23:21;;;;;;;2.17;1.02;;;;;;;;;;4977993;28;20229;-74
2022/06/20 14:25:51;;;;;;;2.78;1.23;;;;;;;;;;4980885;28;20504;-74
2022/06/20 14:28:26;;;;;;;2.78;1.30;;;;;;;;;;4988367;28;20710;-73
2022/06/20 14:30:58;;;;;;;2.10;1.13;;;;;;;;;;4998100;28;20318;-74
2022/06/20 14:33:46;;;;;;;3.00;1.17;;;;;;;;;;4999835;28;20259;-76
2022/06/20 14:36:17;;;;;;;2.47;1.15;;;;;;;;;;5003864;28;20314;-78
2022/06/20 14:38:57;;;;;;;2.03;1.10;;;;;;;;;;5000315;28;20233;-75
2022/06/20 14:42:01;;;;;;;2.70;1.02;;;;;;;;;;4987620;28;20224;-77
2022/06/20 14:44:41;;;;;;;1.88;1.00;;;;;;;;;;4912461;29;20231;-77
2022/06/20 14:47:31;;;;;;;3.28;1.25;;;;;;;;;;4966675;28;20256;-76
2022/06/20 14:50:03;;;;;;;3.03;1.30;;;;;;;;;;5005973;28;20229;-76
2022/06/20 14:53:00;;;;;;;2.80;0.90;;;;;;;;;;4981120;28;20216;-78
2022/06/20 14:55:45;;;;;;;1.83;0.85;;;;;;;;;;5002846;28;20222;-75
2022/06/20 14:58:20;;;;;;;1.75;1.00;;;;;;;;;;4994575;28;20228;-76
2022/06/20 15:01:04;;;;;;;5.07;1.20;;;;;;;;;;4977002;28;20883;-76
2022/06/20 15:03:41;;;;;;;3.50;1.00;;;;;;;;;;4988262;28;20229;-75
2022/06/20 15:06:24;;;;;;;11.70;1.83;;;;;;;;;;4980097;28;20213;-76
2022/06/20 15:09:09;;;;;;;1.38;0.90;;;;;;;;;;4994690;28;20312;-77
2022/06/20 15:11:44;;;;;;;2.75;1.23;;;;;;;;;;5009554;28;20224;-77
2022/06/20 15:14:11;;;;;;;2.45;1.17;;;;;;;;;;5007923;28;20435;-77
2022/06/20 15:16:47;;;;;;;3.30;1.17;;;;;;;;;;5012852;28;20236;-79
2022/06/20 15:19:13;;;;;;;1.63;1.00;;;;;;;;;;5006017;28;20224;-78
2022/06/20 15:21:57;;;;;;;3.95;1.50;;;;;;;;;;4999106;28;20232;-74
2022/06/20 15:24:47;;;;;;;3.05;1.52;;;;;;;;;;4986945;28;20256;-75
2022/06/20 15:27:18;;;;;;;3.88;1.30;;;;;;;;;;4991631;28;20217;-74
2022/06/20 15:30:03;;;;;;;3.38;1.50;;;;;;;;;;5008495;28;20249;-74
2022/06/20 15:32:31;;;;;;;2.40;1.10;;;;;;;;;;4979533;28;20244;-75
2022/06/20 15:38:04;;;;;;;4.72;1.92;;;;;;;;;;4996739;28;20240;-75
2022/06/20 15:40:33;;;;;;;2.15;1.40;;;;;;;;;;4986352;28;20229;-75
2022/06/20 15:43:03;;;;;;;5.75;1.30;;;;;;;;;;4971920;28;20233;-77
2022/06/20 15:45:40;;;;;;;2.05;1.25;;;;;;;;;;4976279;28;20233;-76
2022/06/20 15:48:13;;;;;;;1.50;0.80;;;;;;;;;;4979806;28;20228;-72
2022/06/20 15:51:06;;;;;;;2.58;1.25;;;;;;;;;;4992279;28;20397;-75
2022/06/20 15:53:47;;;;;;;1.52;1.10;;;;;;;;;;4983836;28;20243;-75
2022/06/20 15:56:27;;;;;;;2.95;1.10;;;;;;;;;;5001458;28;20231;-77
2022/06/20 15:59:11;;;;;;;1.88;1.20;;;;;;;;;;5002921;28;20236;-75
2022/06/20 16:01:56;;;;;;;3.53;1.30;;;;;;;;;;4984988;28;20230;-75
2022/06/20 16:04:32;;;;;;;2.47;1.20;;;;;;;;;;4998387;28;20220;-75